Time;durP1;ratioP1;P1;durP2;ratioP2;P2;SDS_P1;SDS_P2;PMS_P1;PMS_P2;Temp;Humidity;BMP_temperature;BMP_pressure;BME280_temperature;BME280_humidity;BME280_pressure;Samples;Min_cycle;Max_cycle;Signal;HPM_P1;HPM_P2
2022/06/19 00:00:21;;;;;;;12.80;5.40;;;;;;;18.25;47.61;99131.64;106107;1273;96462;-67
2022/06/19 00:03:06;;;;;;;14.10;5.20;;;;;;;18.25;47.68;99131.85;106082;1274;108693;-67
2022/06/19 00:05:35;;;;;;;15.30;5.40;;;;;;;18.23;47.64;99131.10;106030;1276;97194;-68
2022/06/19 00:08:04;;;;;;;11.80;5.30;;;;;;;18.24;47.85;99133.93;106030;1276;95304;-69
2022/06/19 00:10:32;;;;;;;12.90;5.10;;;;;;;18.23;47.95;99129.32;106070;1275;110310;-68
2022/06/19 00:13:00;;;;;;;10.20;4.70;;;;;;;18.22;47.91;99132.47;106161;1274;96512;-71
2022/06/19 00:15:30;;;;;;;13.60;5.40;;;;;;;18.21;47.97;99133.17;106113;1274;107467;-65
2022/06/19 00:17:58;;;;;;;12.60;5.10;;;;;;;18.19;47.91;99136.52;106184;1274;96652;-71
2022/06/19 00:20:27;;;;;;;10.30;4.50;;;;;;;18.18;48.06;99139.52;106139;1274;96728;-68
2022/06/19 00:22:55;;;;;;;13.10;5.10;;;;;;;18.17;48.10;99135.88;106139;1274;110576;-68
2022/06/19 00:25:23;;;;;;;11.00;4.80;;;;;;;18.14;48.14;99135.08;106171;1274;96539;-68
2022/06/19 00:27:53;;;;;;;12.30;4.80;;;;;;;18.12;48.07;99134.81;106049;1274;108545;-63
2022/06/19 00:30:21;;;;;;;10.20;4.80;;;;;;;18.09;48.17;99131.80;106022;1274;96552;-63
2022/06/19 00:32:49;;;;;;;12.10;4.90;;;;;;;18.07;48.13;99129.86;106021;1274;96527;-64
2022/06/19 00:35:17;;;;;;;12.10;4.80;;;;;;;18.06;48.23;99125.88;105983;1274;110743;-64
2022/06/19 00:37:47;;;;;;;9.70;4.60;;;;;;;18.04;48.28;99121.94;106009;1274;96537;-65
2022/06/19 00:40:14;;;;;;;10.60;4.70;;;;;;;18.03;48.35;99117.24;105968;1274;108891;-63
2022/06/19 00:42:42;;;;;;;11.90;4.90;;;;;;;18.04;48.29;99120.89;106037;1274;94671;-63
2022/06/19 00:45:50;;;;;;;15.40;5.50;;;;;;;18.03;48.22;99122.66;106011;1274;96546;-67
2022/06/19 00:48:29;;;;;;;11.40;4.70;;;;;;;17.99;48.52;99121.41;105959;1274;110741;-64
2022/06/19 00:51:02;;;;;;;9.40;4.70;;;;;;;17.96;48.42;99117.64;105958;1274;94200;-67
2022/06/19 00:53:36;;;;;;;13.80;4.70;;;;;;;17.95;48.46;99115.96;105968;1275;108365;-65
2022/06/19 00:56:07;;;;;;;9.20;4.40;;;;;;;17.95;48.61;99114.61;106040;1274;97318;-67
2022/06/19 00:58:39;;;;;;;12.40;4.50;;;;;;;17.95;48.64;99112.39;106017;1274;96488;-63
2022/06/19 01:01:16;;;;;;;14.60;5.00;;;;;;;17.95;48.66;99110.61;105992;1274;110047;-66
2022/06/19 01:04:22;;;;;;;10.20;4.70;;;;;;;17.94;48.77;99107.14;106044;1274;95106;-65
2022/06/19 01:06:50;;;;;;;12.00;4.50;;;;;;;17.93;48.72;99104.02;105786;1276;107816;-66
2022/06/19 01:09:19;;;;;;;12.50;4.70;;;;;;;17.92;48.71;99098.52;106013;1274;94653;-64
2022/06/19 01:11:47;;;;;;;12.10;4.30;;;;;;;17.92;48.90;99102.15;106063;1275;96486;-65
2022/06/19 01:14:20;;;;;;;9.30;4.00;;;;;;;17.92;48.94;99103.80;106094;1275;110118;-63
2022/06/19 01:16:49;;;;;;;10.10;3.80;;;;;;;17.90;48.97;99103.42;106117;1274;96265;-64
2022/06/19 01:19:24;;;;;;;10.80;4.00;;;;;;;17.90;48.94;99106.34;106162;1274;107726;-64
2022/06/19 01:22:24;;;;;;;8.50;3.90;;;;;;;17.89;48.95;99107.17;106078;1276;96604;-66
2022/06/19 01:25:05;;;;;;;9.10;4.10;;;;;;;17.86;49.02;99106.48;106001;1274;94245;-66
2022/06/19 01:30:26;;;;;;;9.80;4.40;;;;;;;17.81;49.14;99097.14;106084;1274;96638;-65
2022/06/19 01:32:57;;;;;;;11.50;4.00;;;;;;;17.80;49.19;99095.08;106046;1274;108091;-66
2022/06/19 01:35:30;;;;;;;7.60;3.60;;;;;;;17.79;49.06;99091.04;106012;1274;94943;-66
2022/06/19 01:38:09;;;;;;;9.50;4.50;;;;;;;17.79;49.10;99088.34;106128;1274;96536;-66
2022/06/19 01:40:39;;;;;;;8.70;4.10;;;;;;;17.80;49.04;99087.98;106094;1274;110087;-66
2022/06/19 01:43:09;;;;;;;9.60;3.50;;;;;;;17.79;49.07;99088.39;106117;1274;97071;-66
2022/06/19 01:45:46;;;;;;;9.30;4.00;;;;;;;17.79;49.13;99083.39;106152;1274;107853;-64
2022/06/19 01:48:15;;;;;;;8.90;3.90;;;;;;;17.79;49.18;99081.92;106136;1274;96535;-65
2022/06/19 01:50:44;;;;;;;8.80;3.70;;;;;;;17.79;49.25;99082.09;106124;1274;94388;-65
2022/06/19 01:53:20;;;;;;;9.70;4.10;;;;;;;17.80;49.48;99082.23;106158;1274;110667;-65
2022/06/19 01:55:50;;;;;;;7.30;3.70;;;;;;;17.79;49.34;99085.90;105948;1277;96549;-68
2022/06/19 01:58:21;;;;;;;10.30;4.10;;;;;;;17.78;49.46;99085.79;105873;1277;107745;-67
2022/06/19 02:00:50;;;;;;;10.30;4.20;;;;;;;17.76;49.36;99085.70;105944;1276;96613;-66
2022/06/19 02:03:43;;;;;;;12.00;4.30;;;;;;;17.74;49.47;99081.02;105997;1276;96543;-66
2022/06/19 02:06:15;;;;;;;8.30;4.50;;;;;;;17.71;49.60;99080.42;105955;1276;110108;-67
2022/06/19 02:08:45;;;;;;;5.90;3.50;;;;;;;17.67;49.53;99073.10;105937;1279;96554;-67
2022/06/19 02:11:15;;;;;;;10.60;3.80;;;;;;;17.64;49.57;99069.17;105870;1276;108348;-66
2022/06/19 02:13:45;;;;;;;10.90;3.80;;;;;;;17.61;49.65;99064.10;105888;1277;95119;-67
2022/06/19 02:16:20;;;;;;;9.00;4.00;;;;;;;17.58;49.63;99059.31;105873;1276;96567;-68
2022/06/19 02:18:51;;;;;;;9.80;3.80;;;;;;;17.55;49.76;99057.59;105973;1276;110063;-68
2022/06/19 02:21:32;;;;;;;12.30;4.30;;;;;;;17.55;49.84;99057.51;105966;1276;94268;-66
2022/06/19 02:24:00;;;;;;;7.90;3.60;;;;;;;17.51;49.76;99051.64;105966;1276;108199;-69
2022/06/19 02:26:29;;;;;;;8.00;3.90;;;;;;;17.48;49.88;99049.23;105919;1276;96561;-66
2022/06/19 02:28:57;;;;;;;11.40;3.80;;;;;;;17.47;50.02;99046.34;106021;1276;96559;-67
2022/06/19 02:31:26;;;;;;;11.10;4.00;;;;;;;17.45;49.90;99047.56;105953;1276;110635;-68
2022/06/19 02:34:03;;;;;;;9.50;4.20;;;;;;;17.44;49.99;99045.71;105966;1276;96571;-69
2022/06/19 02:36:37;;;;;;;7.20;3.90;;;;;;;17.42;49.91;99049.48;105963;1276;106684;-69
2022/06/19 02:39:43;;;;;;;10.60;4.00;;;;;;;17.40;50.17;99050.95;105961;1276;96489;-67
2022/06/19 02:42:30;;;;;;;9.10;4.30;;;;;;;17.37;50.08;99054.29;105986;1276;96620;-67
2022/06/19 02:45:04;;;;;;;7.10;3.80;;;;;;;17.36;50.09;99056.16;105895;1276;110638;-69
2022/06/19 02:47:36;;;;;;;9.10;3.80;;;;;;;17.35;50.13;99059.89;105972;1276;97595;-68
2022/06/19 02:50:07;;;;;;;6.70;3.80;;;;;;;17.33;50.27;99063.13;105894;1276;107736;-68
2022/06/19 02:52:35;;;;;;;8.70;3.70;;;;;;;17.33;50.46;99066.93;105954;1276;96643;-68
2022/06/19 02:55:05;;;;;;;11.40;3.80;;;;;;;17.33;50.35;99072.47;105984;1276;96612;-67
2022/06/19 02:57:33;;;;;;;8.00;3.90;;;;;;;17.33;50.52;99072.80;106029;1276;108382;-67
2022/06/19 03:00:06;;;;;;;7.30;4.20;;;;;;;17.33;50.52;99068.27;105992;1273;96669;-68
2022/06/19 03:02:34;;;;;;;8.50;3.50;;;;;;;17.35;50.46;99071.71;105997;1273;107814;-67
2022/06/19 03:05:05;;;;;;;8.60;3.90;;;;;;;17.36;50.61;99073.20;106049;1273;96604;-68
2022/06/19 03:07:34;;;;;;;8.40;3.50;;;;;;;17.36;50.52;99070.17;105986;1273;96595;-70
2022/06/19 03:10:02;;;;;;;7.60;3.50;;;;;;;17.37;50.62;99070.77;105968;1273;110473;-68
2022/06/19 03:12:30;;;;;;;5.60;3.40;;;;;;;17.39;50.49;99068.77;105989;1273;96635;-67
2022/06/19 03:14:58;;;;;;;6.00;3.50;;;;;;;17.42;50.52;99066.15;105953;1274;108310;-67
2022/06/19 03:17:26;;;;;;;8.10;3.50;;;;;;;17.46;50.49;99068.61;105976;1276;94255;-67
2022/06/19 03:19:55;;;;;;;5.80;3.30;;;;;;;17.51;50.64;99067.98;106058;1276;94359;-69
2022/06/19 03:22:24;;;;;;;8.00;3.40;;;;;;;17.55;50.69;99068.40;106019;1276;110406;-66
2022/06/19 03:24:51;;;;;;;4.20;3.00;;;;;;;17.60;50.63;99066.66;105966;1276;95635;-69
2022/06/19 03:27:20;;;;;;;8.90;3.40;;;;;;;17.65;50.55;99070.06;106042;1276;108365;-68
2022/06/19 03:29:49;;;;;;;5.00;3.00;;;;;;;17.71;50.86;99073.80;106082;1274;96570;-67
2022/06/19 03:32:17;;;;;;;7.30;3.30;;;;;;;17.77;50.81;99076.29;106093;1275;96529;-69
2022/06/19 03:34:45;;;;;;;12.30;3.30;;;;;;;17.81;50.69;99078.67;106066;1276;108512;-67
2022/06/19 03:37:13;;;;;;;4.40;3.00;;;;;;;17.86;50.86;99079.81;106047;1275;94340;-68
2022/06/19 03:39:42;;;;;;;6.50;3.10;;;;;;;17.90;50.82;99082.13;105994;1274;107719;-68
2022/06/19 03:42:11;;;;;;;8.60;3.30;;;;;;;17.93;50.78;99075.11;106004;1275;96434;-68
2022/06/19 03:44:40;;;;;;;6.00;3.10;;;;;;;17.96;50.91;99069.73;106058;1276;94370;-67
2022/06/19 03:47:08;;;;;;;6.90;3.30;;;;;;;18.00;50.65;99069.10;105673;1277;403566;-69
2022/06/19 03:49:36;;;;;;;8.00;3.40;;;;;;;18.02;51.11;99068.85;106046;1275;96502;-67
2022/06/19 03:52:05;;;;;;;6.50;3.20;;;;;;;18.05;50.87;99067.14;105944;1274;108390;-68
2022/06/19 03:54:33;;;;;;;5.70;3.00;;;;;;;18.07;50.92;99077.09;106018;1275;96641;-66
2022/06/19 03:57:01;;;;;;;7.30;3.30;;;;;;;18.10;50.91;99078.64;106086;1274;96612;-68
2022/06/19 03:59:30;;;;;;;8.10;3.60;;;;;;;18.13;51.04;99082.46;106002;1274;110738;-68
2022/06/19 04:01:58;;;;;;;5.30;2.80;;;;;;;18.17;51.07;99083.14;106057;1274;96340;-69
2022/06/19 04:04:26;;;;;;;9.40;3.20;;;;;;;18.19;51.03;99077.00;105925;1275;108353;-68
2022/06/19 04:06:55;;;;;;;4.70;3.00;;;;;;;18.22;50.90;99078.27;105930;1274;94287;-68
2022/06/19 04:09:23;;;;;;;9.10;3.50;;;;;;;18.25;51.03;99081.91;106089;1276;96524;-68
2022/06/19 04:11:51;;;;;;;7.60;3.10;;;;;;;18.27;50.94;99079.50;106025;1276;109493;-69
2022/06/19 04:14:19;;;;;;;7.60;3.30;;;;;;;18.30;51.11;99075.78;105983;1276;96621;-67
2022/06/19 04:16:48;;;;;;;6.60;2.90;;;;;;;18.34;50.94;99078.85;105910;1276;108802;-68
2022/06/19 04:19:16;;;;;;;6.30;3.20;;;;;;;18.36;51.07;99074.66;106084;1276;96698;-68
2022/06/19 04:21:46;;;;;;;5.60;2.90;;;;;;;18.39;51.04;99073.79;105916;1277;96677;-69
2022/06/19 04:24:17;;;;;;;8.00;3.40;;;;;;;18.43;51.06;99065.89;105993;1276;110771;-68
2022/06/19 04:26:45;;;;;;;4.10;2.80;;;;;;;18.45;51.13;99067.43;106009;1276;96629;-66
2022/06/19 04:29:16;;;;;;;10.00;3.50;;;;;;;18.49;51.04;99069.56;106013;1276;108376;-71
2022/06/19 04:31:43;;;;;;;6.80;3.30;;;;;;;18.52;51.06;99071.77;106108;1273;95867;-67
2022/06/19 04:34:12;;;;;;;3.60;2.70;;;;;;;18.55;51.15;99070.39;106089;1276;96542;-67
2022/06/19 04:36:40;;;;;;;7.30;3.30;;;;;;;18.59;51.00;99074.43;106055;1276;110532;-68
2022/06/19 04:39:10;;;;;;;9.30;3.20;;;;;;;18.62;50.98;99078.75;106026;1276;95606;-68
2022/06/19 04:41:43;;;;;;;6.50;3.10;;;;;;;18.66;51.08;99082.54;106051;1275;109138;-69
2022/06/19 04:44:14;;;;;;;5.90;2.90;;;;;;;18.69;51.07;99079.96;106122;1274;95231;-67
2022/06/19 04:46:44;;;;;;;7.40;3.10;;;;;;;18.73;51.11;99079.23;106048;1274;96559;-65
2022/06/19 04:49:14;;;;;;;4.60;2.90;;;;;;;18.77;51.27;99078.79;106114;1275;110075;-66
2022/06/19 04:51:43;;;;;;;8.10;3.10;;;;;;;18.82;51.33;99076.81;106138;1275;95518;-68
2022/06/19 04:54:12;;;;;;;5.90;2.80;;;;;;;18.87;51.28;99076.84;106090;1275;107003;-69
2022/06/19 04:56:40;;;;;;;8.30;2.80;;;;;;;18.92;51.42;99077.39;106009;1276;95640;-70
2022/06/19 04:59:08;;;;;;;4.00;2.70;;;;;;;18.97;51.40;99075.94;106115;1276;94276;-69
2022/06/19 05:01:39;;;;;;;7.70;2.80;;;;;;;19.02;51.26;99075.48;105985;1276;110711;-68
2022/06/19 05:04:10;;;;;;;5.00;2.80;;;;;;;19.08;51.41;99072.14;106020;1274;96552;-69
2022/06/19 05:06:39;;;;;;;4.70;2.80;;;;;;;19.13;51.33;99070.48;106033;1274;108429;-69
2022/06/19 05:09:08;;;;;;;5.80;2.70;;;;;;;19.18;51.44;99073.66;106014;1274;94609;-67
2022/06/19 05:11:36;;;;;;;6.80;3.10;;;;;;;19.25;51.51;99076.03;106079;1275;96584;-68
2022/06/19 05:14:05;;;;;;;6.50;2.80;;;;;;;19.31;51.37;99072.84;106083;1274;110718;-69
2022/06/19 05:16:33;;;;;;;7.00;3.00;;;;;;;19.38;51.32;99073.78;106000;1275;96592;-69
2022/06/19 05:19:03;;;;;;;4.20;2.60;;;;;;;19.43;51.41;99068.80;106038;1275;107502;-68
2022/06/19 05:21:32;;;;;;;7.80;2.90;;;;;;;19.50;51.49;99067.01;106143;1275;96513;-68
2022/06/19 05:23:59;;;;;;;8.40;3.30;;;;;;;19.57;51.38;99064.42;106045;1275;96614;-69
2022/06/19 05:26:32;;;;;;;7.30;3.10;;;;;;;19.64;51.41;99060.27;105969;1275;110631;-69
2022/06/19 05:29:02;;;;;;;5.60;2.60;;;;;;;19.71;51.33;99065.61;105922;1276;96536;-68
2022/06/19 05:31:31;;;;;;;8.90;2.90;;;;;;;19.78;51.36;99060.48;105957;1276;109014;-69
2022/06/19 05:34:00;;;;;;;7.50;3.00;;;;;;;19.86;51.42;99058.69;106029;1275;96512;-69
2022/06/19 05:36:36;;;;;;;4.30;2.90;;;;;;;19.95;51.34;99053.11;106080;1276;96520;-70
2022/06/19 05:39:10;;;;;;;7.80;2.90;;;;;;;20.03;51.38;99057.55;106116;1276;110004;-68
2022/06/19 05:41:40;;;;;;;7.00;3.10;;;;;;;20.15;51.36;99054.33;105996;1276;97357;-69
2022/06/19 05:44:11;;;;;;;8.30;3.00;;;;;;;20.27;51.36;99048.64;106057;1275;107826;-68
2022/06/19 05:46:39;;;;;;;6.40;2.90;;;;;;;20.39;51.39;99043.11;106066;1276;96663;-68
2022/06/19 05:49:08;;;;;;;7.00;3.10;;;;;;;20.51;51.33;99041.17;106025;1276;96554;-68
2022/06/19 05:51:36;;;;;;;5.10;3.10;;;;;;;20.65;51.35;99039.10;105989;1274;110080;-67
2022/06/19 05:54:04;;;;;;;6.40;3.20;;;;;;;20.79;51.31;99037.28;105970;1274;96661;-68
2022/06/19 05:56:33;;;;;;;8.20;3.00;;;;;;;20.90;51.18;99031.67;105910;1276;108448;-67
2022/06/19 05:59:02;;;;;;;5.30;2.60;;;;;;;20.99;51.28;99030.66;106007;1275;94634;-68
2022/06/19 06:01:31;;;;;;;7.40;2.90;;;;;;;21.07;51.11;99029.18;105981;1276;96523;-68
2022/06/19 06:04:02;;;;;;;8.50;3.50;;;;;;;21.16;50.98;99024.02;105967;1274;110099;-68
2022/06/19 06:06:31;;;;;;;4.60;2.60;;;;;;;21.26;51.15;99024.98;105989;1275;96399;-68
2022/06/19 06:09:00;;;;;;;9.20;3.00;;;;;;;21.37;51.11;99025.48;105960;1276;107789;-68
2022/06/19 06:11:28;;;;;;;6.50;3.30;;;;;;;21.47;50.88;99023.56;105965;1276;94867;-68
2022/06/19 06:13:56;;;;;;;7.00;2.70;;;;;;;21.58;50.99;99019.99;105964;1276;94908;-69
2022/06/19 06:16:25;;;;;;;4.70;2.90;;;;;;;21.69;50.98;99015.23;106106;1276;111054;-68
2022/06/19 06:18:54;;;;;;;7.10;2.90;;;;;;;21.81;50.76;99010.23;106066;1276;95398;-70
2022/06/19 06:21:24;;;;;;;4.40;2.80;;;;;;;21.95;50.66;99011.27;106011;1276;108356;-68
2022/06/19 06:23:53;;;;;;;8.70;3.00;;;;;;;22.10;50.66;99012.43;106037;1274;96644;-70
2022/06/19 06:26:24;;;;;;;6.60;3.00;;;;;;;22.23;50.56;99005.63;106097;1275;94267;-70
2022/06/19 06:28:54;;;;;;;8.90;3.00;;;;;;;22.37;50.65;99005.81;106020;1276;109945;-70
2022/06/19 06:31:22;;;;;;;4.60;2.20;;;;;;;22.48;50.43;99006.67;106047;1276;94258;-70
2022/06/19 06:33:57;;;;;;;5.60;2.50;;;;;;;22.57;50.53;99004.37;106014;1276;108190;-68
2022/06/19 06:36:28;;;;;;;5.40;2.50;;;;;;;22.69;50.28;99006.15;106039;1275;96537;-73
2022/06/19 06:38:57;;;;;;;6.60;2.70;;;;;;;22.82;50.35;99005.45;106043;1275;95060;-73
2022/06/19 06:41:25;;;;;;;6.50;2.70;;;;;;;22.96;50.15;98997.83;106036;1274;110176;-71
2022/06/19 06:43:54;;;;;;;4.30;2.60;;;;;;;23.11;49.96;99000.30;106044;1275;96755;-72
2022/06/19 06:46:25;;;;;;;8.00;2.90;;;;;;;23.25;50.10;99003.33;106078;1274;107720;-70
2022/06/19 06:48:57;;;;;;;7.70;2.90;;;;;;;23.45;49.83;98998.22;105991;1274;96645;-69
2022/06/19 06:51:27;;;;;;;5.70;2.70;;;;;;;23.60;49.96;98997.72;105994;1274;96597;-69
2022/06/19 06:53:56;;;;;;;6.10;2.50;;;;;;;23.75;49.84;98995.55;106024;1275;110131;-67
2022/06/19 06:56:24;;;;;;;5.80;2.50;;;;;;;23.93;49.84;98997.71;105994;1276;95435;-70
2022/06/19 06:58:53;;;;;;;8.50;2.80;;;;;;;24.08;49.78;98995.02;106041;1276;108803;-68
2022/06/19 07:01:29;;;;;;;5.60;2.60;;;;;;;24.24;49.49;99000.73;105967;1277;96607;-68
2022/06/19 07:03:59;;;;;;;6.50;2.70;;;;;;;24.38;49.44;99002.45;106011;1276;95553;-70
2022/06/19 07:06:30;;;;;;;8.50;2.70;;;;;;;24.62;49.52;99003.88;106006;1276;110041;-71
2022/06/19 07:08:58;;;;;;;6.60;2.90;;;;;;;24.87;49.35;99004.16;105994;1275;96763;-70
2022/06/19 07:11:33;;;;;;;7.60;2.80;;;;;;;25.11;49.24;99003.39;106026;1276;108910;-72
2022/06/19 07:14:01;;;;;;;8.20;2.70;;;;;;;25.35;49.18;99003.87;105937;1275;96594;-74
2022/06/19 07:16:29;;;;;;;5.50;2.60;;;;;;;25.64;49.00;99000.44;106061;1276;96530;-70
2022/06/19 07:18:57;;;;;;;7.10;3.10;;;;;;;25.90;48.94;98998.36;105992;1275;110040;-68
2022/06/19 07:21:25;;;;;;;5.10;2.60;;;;;;;26.15;48.52;99005.73;105965;1276;94370;-73
2022/06/19 07:23:53;;;;;;;7.10;3.00;;;;;;;26.38;48.68;99001.80;106016;1276;108303;-73
2022/06/19 07:26:24;;;;;;;7.40;2.60;;;;;;;26.65;48.51;99001.15;105978;1276;96568;-70
2022/06/19 07:28:52;;;;;;;6.00;2.70;;;;;;;26.90;48.32;99001.86;105995;1274;94388;-71
2022/06/19 07:31:27;;;;;;;7.30;2.50;;;;;;;27.13;48.07;98998.09;105998;1276;110139;-72
2022/06/19 07:33:55;;;;;;;4.90;2.90;;;;;;;27.41;48.02;98994.84;106026;1276;97027;-69
2022/06/19 07:36:25;;;;;;;3.20;2.10;;;;;;;27.69;47.68;98989.44;105890;1276;107747;-69
2022/06/19 07:38:54;;;;;;;10.20;2.50;;;;;;;27.94;47.42;98983.36;105848;1276;96623;-70
2022/06/19 07:41:22;;;;;;;5.00;2.40;;;;;;;28.14;46.87;98984.66;105878;1276;96603;-69
2022/06/19 07:43:51;;;;;;;3.30;2.00;;;;;;;28.39;47.10;98989.20;105873;1276;109238;-71
2022/06/19 07:46:20;;;;;;;7.20;2.20;;;;;;;28.65;46.68;98985.82;105845;1276;97099;-74
2022/06/19 07:51:35;;;;;;;5.90;2.30;;;;;;;29.26;45.95;98972.87;105997;1275;96537;-69
2022/06/19 07:54:03;;;;;;;5.60;2.40;;;;;;;29.49;45.67;98975.85;106033;1276;96512;-68
2022/06/19 07:56:31;;;;;;;8.30;2.20;;;;;;;29.74;45.57;98979.64;105958;1276;110641;-70
2022/06/19 07:59:02;;;;;;;5.10;2.70;;;;;;;29.97;45.45;98977.80;105964;1276;95539;-70
2022/06/19 08:01:30;;;;;;;7.70;2.30;;;;;;;30.21;44.80;98980.11;105982;1276;107563;-69
2022/06/19 08:04:18;;;;;;;9.20;2.70;;;;;;;30.52;44.62;98976.16;106011;1276;96714;-69
2022/06/19 08:06:47;;;;;;;5.40;2.10;;;;;;;30.89;44.64;98976.96;105812;1276;96554;-69
2022/06/19 08:09:15;;;;;;;6.70;2.20;;;;;;;31.19;43.89;98972.07;105938;1276;110631;-68
2022/06/19 08:11:43;;;;;;;7.90;2.70;;;;;;;31.37;43.32;98975.92;105934;1276;97245;-68
2022/06/19 08:14:11;;;;;;;4.40;2.00;;;;;;;31.55;43.22;98976.80;105906;1276;108450;-68
2022/06/19 08:16:39;;;;;;;9.00;2.90;;;;;;;31.86;42.87;98979.95;105946;1276;96623;-68
2022/06/19 08:19:08;;;;;;;8.00;3.30;;;;;;;32.21;43.14;98974.68;105997;1276;96549;-69
2022/06/19 08:21:36;;;;;;;19.20;6.10;;;;;;;32.62;42.56;98973.23;105878;1276;110782;-68
2022/06/19 08:24:04;;;;;;;19.00;5.90;;;;;;;33.06;41.99;98967.53;105908;1276;97045;-70
2022/06/19 08:26:32;;;;;;;10.10;3.80;;;;;;;33.47;41.69;98974.19;105861;1276;108341;-69
2022/06/19 08:29:00;;;;;;;4.40;2.50;;;;;;;33.90;41.65;98972.91;105915;1276;94987;-70
2022/06/19 08:31:31;;;;;;;3.60;1.70;;;;;;;34.29;40.95;98972.86;105995;1276;94331;-69
2022/06/19 08:33:59;;;;;;;12.80;2.40;;;;;;;34.55;40.42;98966.78;105923;1277;110129;-69
2022/06/19 08:36:29;;;;;;;11.90;3.60;;;;;;;34.87;40.33;98959.20;105987;1276;97050;-69
2022/06/19 08:39:00;;;;;;;8.00;3.10;;;;;;;35.22;40.04;98960.88;105959;1276;107508;-67
2022/06/19 08:41:58;;;;;;;9.60;3.10;;;;;;;35.53;39.93;98958.20;105938;1276;96642;-69
2022/06/19 08:45:02;;;;;;;6.70;2.50;;;;;;;35.77;39.61;98956.39;105894;1277;96527;-69
2022/06/19 08:47:46;;;;;;;3.60;1.90;;;;;;;35.97;39.17;98951.06;105950;1276;111090;-69
2022/06/19 08:50:35;;;;;;;6.90;2.70;;;;;;;36.20;38.05;98957.52;105929;1279;97038;-70
2022/06/19 08:53:10;;;;;;;6.70;2.30;;;;;;;36.26;38.09;98955.38;105786;1278;109290;-69
2022/06/19 08:56:05;;;;;;;8.40;2.30;;;;;;;36.39;38.00;98955.91;105819;1277;96634;-68
2022/06/19 08:59:08;;;;;;;7.10;2.50;;;;;;;36.63;37.47;98960.33;105930;1276;96563;-68
2022/06/19 09:01:51;;;;;;;6.00;2.40;;;;;;;36.82;37.07;98961.31;105931;1276;110660;-69
2022/06/19 09:07:44;;;;;;;5.70;2.20;;;;;;;36.90;36.67;98957.30;105982;1276;108156;-70
2022/06/19 09:10:36;;;;;;;3.90;2.30;;;;;;;36.89;36.35;98956.59;105968;1276;96654;-69
2022/06/19 09:13:15;;;;;;;4.30;2.30;;;;;;;36.89;35.97;98952.48;105970;1276;96531;-69
2022/06/19 09:15:55;;;;;;;4.80;2.40;;;;;;;36.95;35.69;98952.13;105953;1276;110649;-69
2022/06/19 09:18:29;;;;;;;12.10;4.80;;;;;;;37.00;35.54;98952.66;105964;1276;96269;-68
2022/06/19 09:21:36;;;;;;;5.40;2.30;;;;;;;36.94;34.80;98949.91;105845;1276;107691;-69
2022/06/19 09:24:24;;;;;;;5.40;1.90;;;;;;;36.76;34.05;98945.49;105734;1277;96639;-67
2022/06/19 09:27:02;;;;;;;5.00;1.90;;;;;;;36.33;33.60;98946.54;105876;1276;95019;-69
2022/06/19 09:29:40;;;;;;;6.70;2.40;;;;;;;35.98;32.57;98941.64;105938;1276;110042;-66
2022/06/19 09:32:38;;;;;;;7.90;2.10;;;;;;;35.71;32.25;98937.65;105935;1276;95003;-70
2022/06/19 09:35:36;;;;;;;12.00;2.10;;;;;;;35.39;32.68;98933.77;105848;1277;108257;-68
2022/06/19 09:38:42;;;;;;;7.70;2.30;;;;;;;35.31;32.25;98929.20;105854;1277;96564;-67
2022/06/19 09:41:26;;;;;;;13.40;2.40;;;;;;;34.98;32.05;98926.06;105612;1281;96351;-68
2022/06/19 09:44:03;;;;;;;7.40;1.80;;;;;;;34.85;32.30;98926.88;105580;1283;110793;-67
2022/06/19 09:46:50;;;;;;;2.40;1.90;;;;;;;34.79;31.77;98923.01;105778;1278;97061;-68
2022/06/19 09:49:30;;;;;;;2.20;1.60;;;;;;;34.64;31.60;98922.94;105941;1277;108402;-68
2022/06/19 09:52:11;;;;;;;6.40;2.00;;;;;;;34.47;31.38;98922.58;105959;1276;96587;-67
2022/06/19 09:54:46;;;;;;;3.90;2.10;;;;;;;34.30;31.23;98919.77;105902;1277;94509;-67
2022/06/19 09:57:29;;;;;;;3.90;2.20;;;;;;;34.18;31.28;98917.70;105927;1277;110425;-67
2022/06/19 10:00:24;;;;;;;5.30;2.10;;;;;;;34.19;31.02;98919.85;105964;1277;96705;-67
2022/06/19 10:03:41;;;;;;;4.30;2.10;;;;;;;33.87;30.60;98912.43;105923;1278;107761;-68
2022/06/19 10:06:33;;;;;;;2.30;1.80;;;;;;;33.46;30.29;98909.40;105882;1278;94743;-67
2022/06/19 10:09:33;;;;;;;5.00;1.90;;;;;;;33.19;30.48;98911.32;105891;1277;96493;-67
2022/06/19 10:12:04;;;;;;;8.20;2.20;;;;;;;32.84;30.14;98922.48;105940;1277;110836;-67
2022/06/19 10:14:41;;;;;;;5.90;2.20;;;;;;;32.51;29.77;98925.88;105977;1277;97056;-67
2022/06/19 10:17:30;;;;;;;4.60;2.20;;;;;;;32.26;30.13;98925.92;105996;1278;107873;-67
2022/06/19 10:20:14;;;;;;;8.20;2.00;;;;;;;32.04;30.22;98921.76;105950;1278;96555;-67
2022/06/19 10:23:10;;;;;;;7.80;2.40;;;;;;;31.89;29.88;98922.45;105954;1278;95884;-67
2022/06/19 10:26:04;;;;;;;4.80;2.10;;;;;;;31.71;29.88;98920.89;106021;1276;110592;-68
2022/06/19 10:28:47;;;;;;;3.90;2.30;;;;;;;31.41;29.63;98915.97;106018;1277;97037;-68
2022/06/19 10:31:21;;;;;;;5.80;2.30;;;;;;;31.14;29.78;98904.23;105897;1278;108371;-67
2022/06/19 10:34:27;;;;;;;7.10;2.20;;;;;;;31.01;30.06;98905.00;105969;1277;96622;-67
2022/06/19 10:37:12;;;;;;;4.70;2.20;;;;;;;30.96;30.09;98906.36;105994;1277;94267;-68
2022/06/19 10:40:06;;;;;;;6.60;2.10;;;;;;;30.91;29.94;98911.00;105986;1278;110090;-68
2022/06/19 10:42:45;;;;;;;5.30;2.90;;;;;;;30.84;30.14;98905.72;105919;1277;94363;-68
2022/06/19 10:45:38;;;;;;;8.70;2.20;;;;;;;30.75;30.09;98898.17;105946;1278;107713;-68
2022/06/19 10:48:22;;;;;;;4.00;1.80;;;;;;;30.66;30.02;98898.89;105920;1278;95578;-67
2022/06/19 10:51:42;;;;;;;13.40;3.00;;;;;;;30.55;30.05;98893.53;105858;1278;94258;-68
2022/06/19 10:54:47;;;;;;;5.60;2.50;;;;;;;30.45;30.35;98888.30;105823;1278;109824;-68
2022/06/19 10:57:29;;;;;;;6.00;1.90;;;;;;;30.44;30.28;98878.66;105930;1277;97239;-66
2022/06/19 10:59:57;;;;;;;9.70;2.30;;;;;;;30.44;30.30;98875.92;105942;1277;107677;-68
2022/06/19 11:05:30;;;;;;;7.20;2.30;;;;;;;30.42;30.36;98871.23;106084;1276;96620;-69
2022/06/19 11:07:58;;;;;;;5.40;2.60;;;;;;;30.42;30.50;98869.51;105972;1277;110484;-67
2022/06/19 11:10:37;;;;;;;2.90;1.90;;;;;;;30.41;30.66;98864.55;105919;1278;97151;-68
2022/06/19 11:13:06;;;;;;;6.80;2.40;;;;;;;30.35;30.49;98863.42;105831;1277;107776;-67
2022/06/19 11:15:47;;;;;;;11.90;2.60;;;;;;;30.31;30.56;98860.56;105950;1278;94245;-67
2022/06/19 11:18:21;;;;;;;9.30;2.50;;;;;;;30.25;30.58;98862.68;105895;1278;96540;-67
2022/06/19 11:21:03;;;;;;;11.90;2.80;;;;;;;30.17;30.57;98862.27;105801;1277;109097;-68
2022/06/19 11:23:57;;;;;;;7.20;2.30;;;;;;;30.14;30.76;98856.17;105805;1277;95223;-68
2022/06/19 11:26:36;;;;;;;8.70;3.00;;;;;;;30.16;30.87;98852.21;105853;1278;108483;-69
2022/06/19 11:29:17;;;;;;;3.80;2.10;;;;;;;30.17;30.85;98851.96;105903;1276;96626;-68
2022/06/19 11:32:15;;;;;;;6.40;2.50;;;;;;;30.20;30.79;98849.59;105918;1277;94309;-70
2022/06/19 11:34:56;;;;;;;8.60;3.00;;;;;;;30.21;30.99;98840.23;105980;1278;110086;-69
2022/06/19 11:37:56;;;;;;;9.10;2.50;;;;;;;30.22;31.07;98840.30;105967;1277;96977;-69
2022/06/19 11:40:35;;;;;;;4.40;2.10;;;;;;;30.16;31.10;98834.56;105902;1276;106167;-70
2022/06/19 11:43:05;;;;;;;4.70;2.20;;;;;;;30.14;31.23;98831.28;105975;1277;96616;-70
2022/06/19 11:45:37;;;;;;;8.20;2.70;;;;;;;30.13;31.29;98830.60;106026;1277;94300;-71
2022/06/19 11:48:10;;;;;;;;;;;;;;;30.15;31.36;98828.52;105975;1277;110160;-73
2022/06/19 11:50:46;;;;;;;;;;;;;;;30.16;31.47;98831.38;106022;1276;96571;-71
2022/06/19 11:53:23;;;;;;;8.90;2.90;;;;;;;30.16;31.47;98826.98;105972;1277;108371;-71
2022/06/19 11:56:15;;;;;;;7.70;3.10;;;;;;;30.12;31.61;98822.69;105863;1277;96527;-71
2022/06/19 11:58:51;;;;;;;8.50;3.10;;;;;;;30.10;31.65;98820.41;106013;1278;96597;-72
2022/06/19 12:01:23;;;;;;;7.00;2.50;;;;;;;30.13;31.64;98821.85;106020;1277;109792;-71
2022/06/19 12:03:58;;;;;;;8.30;2.50;;;;;;;30.17;31.76;98820.36;106048;1277;96530;-73
2022/06/19 12:06:59;;;;;;;6.00;2.80;;;;;;;30.19;31.87;98817.71;106010;1277;107424;-72